sensor_id;sensor_type;location;lat;lon;timestamp;pressure;altitude;pressure_sealevel;temperature;humidity
67980;BME280;54760;47.490;19.030;2023-03-04T17:05:39;99676.31;;;10.82;37.84
67980;BME280;54760;47.490;19.030;2023-03-04T17:08:04;99676.31;;;10.82;37.84
67980;BME280;54760;47.490;19.030;2023-03-04T17:10:30;99676.34;;;10.50;35.00
67980;BME280;54760;47.490;19.030;2023-03-04T17:12:55;99678.47;;;10.42;37.16
67980;BME280;54760;47.490;19.030;2023-03-04T17:15:20;99688.22;;;10.59;36.39
67980;BME280;54760;47.490;19.030;2023-03-04T17:17:46;99685.66;;;10.68;37.22
67980;BME280;54760;47.490;19.030;2023-03-04T17:20:16;99683.69;;;10.69;37.38
67980;BME280;54760;47.490;19.030;2023-03-04T17:22:43;99695.22;;;10.44;35.76
67980;BME280;54760;47.490;19.030;2023-03-04T17:25:09;99690.69;;;10.37;36.70
67980;BME280;54760;47.490;19.030;2023-03-04T17:27:35;99682.81;;;10.23;35.69
67980;BME280;54760;47.490;19.030;2023-03-04T17:30:02;99691.47;;;10.38;35.33
67980;BME280;54760;47.490;19.030;2023-03-04T17:32:27;99711.22;;;10.29;36.47
67980;BME280;54760;47.490;19.030;2023-03-04T17:34:56;99694.47;;;10.43;35.82
67980;BME280;54760;47.490;19.030;2023-03-04T17:37:22;99706.41;;;10.33;36.21
67980;BME280;54760;47.490;19.030;2023-03-04T17:39:48;99710.19;;;10.39;37.47
67980;BME280;54760;47.490;19.030;2023-03-04T17:42:13;99707.09;;;10.21;36.26
67980;BME280;54760;47.490;19.030;2023-03-04T17:44:39;99698.53;;;10.19;37.27
67980;BME280;54760;47.490;19.030;2023-03-04T17:47:04;99699.00;;;10.14;35.94
67980;BME280;54760;47.490;19.030;2023-03-04T17:49:30;99705.59;;;9.41;36.84
67980;BME280;54760;47.490;19.030;2023-03-04T17:51:58;99701.22;;;9.24;37.30
67980;BME280;54760;47.490;19.030;2023-03-04T17:54:24;99699.72;;;9.00;37.91
67980;BME280;54760;47.490;19.030;2023-03-04T17:56:49;99702.66;;;8.89;38.27
67980;BME280;54760;47.490;19.030;2023-03-04T17:59:16;99706.69;;;8.58;38.95
67980;BME280;54760;47.490;19.030;2023-03-04T18:01:43;99721.91;;;8.55;39.20
67980;BME280;54760;47.490;19.030;2023-03-04T18:04:09;99705.53;;;8.28;39.93
67980;BME280;54760;47.490;19.030;2023-03-04T18:06:35;99714.06;;;8.34;40.05
67980;BME280;54760;47.490;19.030;2023-03-04T18:09:01;99716.44;;;8.28;40.34
67980;BME280;54760;47.490;19.030;2023-03-04T18:11:27;99712.63;;;8.22;40.64
67980;BME280;54760;47.490;19.030;2023-03-04T18:13:53;99717.09;;;8.09;41.15
67980;BME280;54760;47.490;19.030;2023-03-04T18:16:18;99712.69;;;7.89;41.81
67980;BME280;54760;47.490;19.030;2023-03-04T18:18:51;99725.97;;;7.87;42.33
67980;BME280;54760;47.490;19.030;2023-03-04T18:21:18;99734.28;;;7.76;42.88
67980;BME280;54760;47.490;19.030;2023-03-04T18:23:43;99731.31;;;7.63;43.51
67980;BME280;54760;47.490;19.030;2023-03-04T18:26:10;99730.41;;;7.73;43.54
67980;BME280;54760;47.490;19.030;2023-03-04T18:28:35;99738.31;;;7.95;43.76
67980;BME280;54760;47.490;19.030;2023-03-04T18:31:00;99733.47;;;7.79;43.69
67980;BME280;54760;47.490;19.030;2023-03-04T18:33:27;99735.50;;;7.71;44.14
67980;BME280;54760;47.490;19.030;2023-03-04T18:36:01;99735.28;;;7.55;44.56
67980;BME280;54760;47.490;19.030;2023-03-04T18:38:27;99747.97;;;7.35;45.14
67980;BME280;54760;47.490;19.030;2023-03-04T18:41:02;99748.78;;;7.32;45.28
67980;BME280;54760;47.490;19.030;2023-03-04T18:43:28;99755.44;;;7.24;45.81
67980;BME280;54760;47.490;19.030;2023-03-04T18:48:30;99767.97;;;7.18;46.12
67980;BME280;54760;47.490;19.030;2023-03-04T18:50:57;99759.28;;;6.85;47.12
67980;BME280;54760;47.490;19.030;2023-03-04T18:53:27;99764.06;;;6.74;47.42
67980;BME280;54760;47.490;19.030;2023-03-04T18:55:55;99775.88;;;6.50;48.22
67980;BME280;54760;47.490;19.030;2023-03-04T18:58:26;99780.63;;;6.35;49.13
67980;BME280;54760;47.490;19.030;2023-03-04T19:00:53;99780.66;;;6.28;49.02
67980;BME280;54760;47.490;19.030;2023-03-04T19:03:19;99776.78;;;6.29;49.36
67980;BME280;54760;47.490;19.030;2023-03-04T19:05:44;99781.88;;;6.17;49.69
67980;BME280;54760;47.490;19.030;2023-03-04T19:08:10;99781.81;;;6.89;51.87
67980;BME280;54760;47.490;19.030;2023-03-04T19:10:35;99778.53;;;7.09;49.85
67980;BME280;54760;47.490;19.030;2023-03-04T19:13:01;99774.03;;;6.91;48.62
67980;BME280;54760;47.490;19.030;2023-03-04T19:15:28;99796.53;;;6.95;48.93
67980;BME280;54760;47.490;19.030;2023-03-04T19:17:53;99787.25;;;6.31;50.01
67980;BME280;54760;47.490;19.030;2023-03-04T19:20:19;99790.06;;;6.13;50.71
67980;BME280;54760;47.490;19.030;2023-03-04T19:22:44;99797.16;;;5.89;51.46
67980;BME280;54760;47.490;19.030;2023-03-04T19:25:10;99788.63;;;5.91;51.99
67980;BME280;54760;47.490;19.030;2023-03-04T19:27:36;99789.78;;;5.79;52.16
67980;BME280;54760;47.490;19.030;2023-03-04T19:30:02;99780.91;;;5.64;52.56
67980;BME280;54760;47.490;19.030;2023-03-04T19:32:28;99795.28;;;5.51;53.22
67980;BME280;54760;47.490;19.030;2023-03-04T19:34:54;99780.56;;;5.52;53.56
67980;BME280;54760;47.490;19.030;2023-03-04T19:37:20;99800.72;;;5.51;53.53
67980;BME280;54760;47.490;19.030;2023-03-04T19:39:45;99788.72;;;5.38;53.97
67980;BME280;54760;47.490;19.030;2023-03-04T19:42:13;99796.47;;;5.43;53.91
67980;BME280;54760;47.490;19.030;2023-03-04T19:44:39;99791.41;;;5.55;53.62
67980;BME280;54760;47.490;19.030;2023-03-04T19:47:05;99808.88;;;5.44;54.02
67980;BME280;54760;47.490;19.030;2023-03-04T19:49:31;99807.34;;;5.32;54.57
67980;BME280;54760;47.490;19.030;2023-03-04T19:51:57;99804.25;;;5.30;54.53
67980;BME280;54760;47.490;19.030;2023-03-04T19:54:22;99810.41;;;5.38;54.51
67980;BME280;54760;47.490;19.030;2023-03-04T19:56:48;99817.81;;;5.41;54.47
67980;BME280;54760;47.490;19.030;2023-03-04T19:59:13;99809.66;;;5.34;54.69
67980;BME280;54760;47.490;19.030;2023-03-04T20:01:40;99811.22;;;5.35;54.65
67980;BME280;54760;47.490;19.030;2023-03-04T20:04:11;99824.00;;;5.23;55.04
67980;BME280;54760;47.490;19.030;2023-03-04T20:06:39;99818.16;;;5.43;54.52
67980;BME280;54760;47.490;19.030;2023-03-04T20:09:05;99818.97;;;5.29;54.86
67980;BME280;54760;47.490;19.030;2023-03-04T20:11:31;99825.59;;;5.17;55.17
67980;BME280;54760;47.490;19.030;2023-03-04T20:13:58;99818.22;;;5.32;54.77
67980;BME280;54760;47.490;19.030;2023-03-04T20:16:24;99824.03;;;5.09;55.27
67980;BME280;54760;47.490;19.030;2023-03-04T20:18:50;99825.19;;;5.26;54.86
67980;BME280;54760;47.490;19.030;2023-03-04T20:21:16;99829.06;;;5.07;55.51
67980;BME280;54760;47.490;19.030;2023-03-04T20:23:41;99841.87;;;5.03;55.47
67980;BME280;54760;47.490;19.030;2023-03-04T20:26:07;99841.47;;;5.26;54.93
67980;BME280;54760;47.490;19.030;2023-03-04T20:28:32;99832.16;;;5.16;55.21
67980;BME280;54760;47.490;19.030;2023-03-04T20:31:16;99837.59;;;5.02;55.46
67980;BME280;54760;47.490;19.030;2023-03-04T20:33:44;99831.00;;;5.17;55.04
67980;BME280;54760;47.490;19.030;2023-03-04T20:36:13;99834.47;;;5.00;55.53
67980;BME280;54760;47.490;19.030;2023-03-04T20:38:38;99829.06;;;5.14;55.32
67980;BME280;54760;47.490;19.030;2023-03-04T20:41:03;99820.53;;;5.27;54.79
67980;BME280;54760;47.490;19.030;2023-03-04T20:43:29;99829.06;;;4.86;55.99
67980;BME280;54760;47.490;19.030;2023-03-04T20:46:31;99823.25;;;5.02;55.50
67980;BME280;54760;47.490;19.030;2023-03-04T20:49:01;99829.81;;;5.04;55.54
67980;BME280;54760;47.490;19.030;2023-03-04T20:51:28;99828.25;;;4.89;55.90
67980;BME280;54760;47.490;19.030;2023-03-04T20:53:54;99833.31;;;4.84;56.06
67980;BME280;54760;47.490;19.030;2023-03-04T20:56:21;99827.50;;;4.92;55.96
67980;BME280;54760;47.490;19.030;2023-03-04T20:58:47;99835.28;;;4.97;55.63
67980;BME280;54760;47.490;19.030;2023-03-04T21:01:13;99831.38;;;4.77;56.46
67980;BME280;54760;47.490;19.030;2023-03-04T21:03:39;99827.91;;;4.87;55.98
67980;BME280;54760;47.490;19.030;2023-03-04T21:06:06;99827.50;;;4.96;55.85
67980;BME280;54760;47.490;19.030;2023-03-04T21:08:32;99831.38;;;4.88;55.91
67980;BME280;54760;47.490;19.030;2023-03-04T21:10:58;99839.91;;;4.86;56.14
67980;BME280;54760;47.490;19.030;2023-03-04T21:13:23;99831.00;;;4.82;56.16
67980;BME280;54760;47.490;19.030;2023-03-04T21:15:54;99835.66;;;4.92;55.89
67980;BME280;54760;47.490;19.030;2023-03-04T21:18:19;99825.91;;;4.70;56.56
67980;BME280;54760;47.490;19.030;2023-03-04T21:20:45;99837.59;;;4.95;55.89
67980;BME280;54760;47.490;19.030;2023-03-04T21:23:12;99833.28;;;4.80;56.24
67980;BME280;54760;47.490;19.030;2023-03-04T21:25:38;99830.59;;;4.94;55.89
67980;BME280;54760;47.490;19.030;2023-03-04T21:28:04;99829.81;;;4.90;55.76
67980;BME280;54760;47.490;19.030;2023-03-04T21:30:30;99820.91;;;4.79;56.30
67980;BME280;54760;47.490;19.030;2023-03-04T21:32:55;99822.84;;;4.68;56.66
67980;BME280;54760;47.490;19.030;2023-03-04T21:35:21;99831.75;;;4.79;56.27
67980;BME280;54760;47.490;19.030;2023-03-04T21:37:46;99827.84;;;4.66;56.76
67980;BME280;54760;47.490;19.030;2023-03-04T21:40:12;99830.97;;;4.86;56.40
67980;BME280;54760;47.490;19.030;2023-03-04T21:42:37;99825.53;;;4.68;56.66
67980;BME280;54760;47.490;19.030;2023-03-04T21:45:05;99827.88;;;4.73;56.66
67980;BME280;54760;47.490;19.030;2023-03-04T21:47:32;99825.91;;;4.52;57.14
67980;BME280;54760;47.490;19.030;2023-03-04T21:49:58;99829.38;;;4.49;57.34
67980;BME280;54760;47.490;19.030;2023-03-04T21:52:24;99834.00;;;4.45;57.61
67980;BME280;54760;47.490;19.030;2023-03-04T21:54:49;99827.41;;;4.43;57.44
67980;BME280;54760;47.490;19.030;2023-03-04T21:57:14;99832.03;;;4.24;58.16
67980;BME280;54760;47.490;19.030;2023-03-04T21:59:40;99837.44;;;4.28;58.11
67980;BME280;54760;47.490;19.030;2023-03-04T22:02:08;99830.78;;;4.11;58.81
67980;BME280;54760;47.490;19.030;2023-03-04T22:04:38;99832.75;;;4.14;58.98
67980;BME280;54760;47.490;19.030;2023-03-04T22:07:05;99829.69;;;4.26;58.57
67980;BME280;54760;47.490;19.030;2023-03-04T22:09:31;99833.94;;;4.24;58.57
67980;BME280;54760;47.490;19.030;2023-03-04T22:11:57;99838.22;;;4.28;58.82
67980;BME280;54760;47.490;19.030;2023-03-04T22:14:22;99838.59;;;4.30;58.49
67980;BME280;54760;47.490;19.030;2023-03-04T22:16:48;99835.47;;;4.21;58.78
67980;BME280;54760;47.490;19.030;2023-03-04T22:19:14;99840.87;;;4.21;59.04
67980;BME280;54760;47.490;19.030;2023-03-04T22:21:40;99836.62;;;4.20;59.08
67980;BME280;54760;47.490;19.030;2023-03-04T22:24:05;99836.69;;;4.34;58.74
67980;BME280;54760;47.490;19.030;2023-03-04T22:26:31;99843.75;;;4.64;57.85
67980;BME280;54760;47.490;19.030;2023-03-04T22:28:59;99846.00;;;4.41;58.57
67980;BME280;54760;47.490;19.030;2023-03-04T22:31:28;99845.25;;;4.47;58.27
67980;BME280;54760;47.490;19.030;2023-03-04T22:34:05;99839.78;;;4.29;58.89
67980;BME280;54760;47.490;19.030;2023-03-04T22:36:32;99840.97;;;4.43;58.60
67980;BME280;54760;47.490;19.030;2023-03-04T22:38:59;99845.22;;;4.36;58.63
67980;BME280;54760;47.490;19.030;2023-03-04T22:41:25;99844.44;;;4.32;58.97
67980;BME280;54760;47.490;19.030;2023-03-04T22:43:51;99848.22;;;4.10;59.57
67980;BME280;54760;47.490;19.030;2023-03-04T22:46:20;99853.28;;;4.22;59.09
67980;BME280;54760;47.490;19.030;2023-03-04T22:48:47;99856.78;;;4.26;58.95
67980;BME280;54760;47.490;19.030;2023-03-04T22:51:12;99851.34;;;4.19;59.04
67980;BME280;54760;47.490;19.030;2023-03-04T22:53:38;99846.34;;;4.32;58.65
67980;BME280;54760;47.490;19.030;2023-03-04T22:56:07;99856.00;;;4.26;58.91
67980;BME280;54760;47.490;19.030;2023-03-04T22:58:33;99845.09;;;4.08;59.55
67980;BME280;54760;47.490;19.030;2023-03-04T23:00:59;99838.91;;;4.04;59.54
67980;BME280;54760;47.490;19.030;2023-03-04T23:03:26;99841.13;;;3.81;60.53
67980;BME280;54760;47.490;19.030;2023-03-04T23:06:13;99843.06;;;3.87;60.38
67980;BME280;54760;47.490;19.030;2023-03-04T23:08:41;99844.94;;;3.76;60.78
67980;BME280;54760;47.490;19.030;2023-03-04T23:11:09;99834.09;;;3.73;60.97
67980;BME280;54760;47.490;19.030;2023-03-04T23:13:36;99844.84;;;3.59;61.53
67980;BME280;54760;47.490;19.030;2023-03-04T23:16:03;99846.38;;;3.56;61.65
67980;BME280;54760;47.490;19.030;2023-03-04T23:18:30;99836.25;;;3.46;62.10
67980;BME280;54760;47.490;19.030;2023-03-04T23:20:56;99845.56;;;3.52;62.09
67980;BME280;54760;47.490;19.030;2023-03-04T23:23:21;99835.84;;;3.40;62.47
67980;BME280;54760;47.490;19.030;2023-03-04T23:25:47;99842.84;;;3.52;62.24
67980;BME280;54760;47.490;19.030;2023-03-04T23:28:16;99838.16;;;3.42;62.63
67980;BME280;54760;47.490;19.030;2023-03-04T23:30:42;99852.84;;;3.41;62.86
67980;BME280;54760;47.490;19.030;2023-03-04T23:33:07;99843.44;;;3.28;63.35
67980;BME280;54760;47.490;19.030;2023-03-04T23:35:33;99854.59;;;3.19;63.82
67980;BME280;54760;47.490;19.030;2023-03-04T23:37:58;99843.78;;;3.19;63.80
67980;BME280;54760;47.490;19.030;2023-03-04T23:40:24;99851.88;;;3.19;63.98
67980;BME280;54760;47.490;19.030;2023-03-04T23:42:49;99853.03;;;3.18;64.13
67980;BME280;54760;47.490;19.030;2023-03-04T23:45:14;99853.78;;;3.12;64.24
67980;BME280;54760;47.490;19.030;2023-03-04T23:47:41;99869.69;;;3.20;64.08
67980;BME280;54760;47.490;19.030;2023-03-04T23:50:07;99866.22;;;3.23;63.95
67980;BME280;54760;47.490;19.030;2023-03-04T23:52:33;99868.06;;;3.12;64.23
67980;BME280;54760;47.490;19.030;2023-03-04T23:54:58;99871.50;;;3.09;64.41
67980;BME280;54760;47.490;19.030;2023-03-04T23:57:24;99886.19;;;3.08;64.58
67980;BME280;54760;47.490;19.030;2023-03-04T23:59:49;99881.50;;;3.01;64.74
